Atwater, Illinois
Current Conditions -  °F | °C
As of 9:35 PM on Saturday 24 Jan 2015 (Local Time) from K3LF Reporting Station
Clear Clear  
Wind Chill: 32°   Ceiling: Unl
Heat Index: 37°   Visibility: 10mi
Dew Point: 31°   Wind: 6mph
Humidity: 80%   Direction: 180°S
Pressure: 29.72"   Gusts: NA
Location:  39.33°N, 89.72°W
Report Text: K3LF 250335Z AUTO 18005KT 10SM CLR 03/00 A2972 RMK AO2 T00271005
Loading
Personal Weather Stations






























Interactive Weather Map New forecast layout! Learn more

10-Day Weather Forecast

Advertisements
Track Severe Weather on mobile